Temp: 6.9°C   Baro: 1019.6mb
  Wind: 2.9mph   Dir: NNW (337°)
  Rain: 7.6mm (0.0mm/hr)
  Solar: 0W/m2  Hum: 88%
 
Bath Spa Weather Station Historical Data
Daily Summary for July 12, 2019 Units:  Both    English   Metric
Daily Weekly Monthly Yearly Custom
  High: Low: Average:
Temperature: 50.6 °F /  10.3 °C 44.2 °F /  6.8 °C 47.9 °F /  8.8 °C
Dew Point: 46.9 °F /  8.3 °C 41 °F /  5 °C 44.3 °F /  6.8 °C
Humidity: 93% 78% 87%
Wind Speed: 11.3mph /  18.2km/h - 6.5mph /  10.5km/h
Wind Gust: 22mph /  35.4km/h - -
Wind- - WNW
Pressure: 30.41 in /  1029.7 hPa 30.16 in /  1021.2 hPa -
Precipitation: 0.00 in /  0 mm    
Historical Graphs
 
 
Tabular Data for July 12, 2019
Time Temperature Dew Point Pressure Wind Wind Speed Wind Gust Humidity Rainfall Rate (Hourly) solar
00:04 44.2 °F /  6.8 °C 41 °F /  5 °C 30.41in /  1029.7hPa Calm     88% 0.00in /  0mm 0 W/m2
00:09 44.5 °F /  6.9 °C 41.2 °F /  5.1 °C 30.40in /  1029.3hPa WNW 1.8mph /  2.9km/h 4mph /  6.4km/h 88% 0.00in /  0mm 0 W/m2
00:14 44.9 °F /  7.2 °C 41.5 °F /  5.3 °C 30.40in /  1029.3hPa NW 2.4mph /  3.9km/h 5mph /  8km/h 88% 0.00in /  0mm 0 W/m2
00:19 45.1 °F /  7.3 °C 41.7 °F /  5.4 °C 30.40in /  1029.3hPa NW 2.4mph /  3.9km/h 6mph /  9.7km/h 88% 0.00in /  0mm 0 W/m2
00:24 45.1 °F /  7.3 °C 41.7 °F /  5.4 °C 30.40in /  1029.3hPa WNW 2mph /  3.2km/h 7mph /  11.3km/h 88% 0.00in /  0mm 0 W/m2
00:29 45.3 °F /  7.4 °C 41.9 °F /  5.5 °C 30.40in /  1029.3hPa WNW 3mph /  4.8km/h 7mph /  11.3km/h 88% 0.00in /  0mm 0 W/m2
00:34 45.3 °F /  7.4 °C 41.9 °F /  5.5 °C 30.40in /  1029.3hPa WNW 2.2mph /  3.5km/h 5mph /  8km/h 88% 0.00in /  0mm 0 W/m2
00:39 45.3 °F /  7.4 °C 41.9 °F /  5.5 °C 30.40in /  1029.3hPa WNW 2.7mph /  4.3km/h 5mph /  8km/h 88% 0.00in /  0mm 0 W/m2
00:44 45.3 °F /  7.4 °C 41.9 °F /  5.5 °C 30.40in /  1029.3hPa WNW 2.7mph /  4.3km/h 5mph /  8km/h 88% 0.00in /  0mm 0 W/m2
00:49 45.3 °F /  7.4 °C 41.9 °F /  5.5 °C 30.39in /  1029hPa WNW 1.5mph /  2.4km/h 4mph /  6.4km/h 88% 0.00in /  0mm 0 W/m2
00:54 45.3 °F /  7.4 °C 41.9 °F /  5.5 °C 30.39in /  1029hPa WNW 1.2mph /  1.9km/h 3mph /  4.8km/h 88% 0.00in /  0mm 0 W/m2
00:59 45.3 °F /  7.4 °C 41.9 °F /  5.5 °C 30.39in /  1029hPa WNW 0.5mph /  0.8km/h 2mph /  3.2km/h 88% 0.00in /  0mm 0 W/m2
01:04 45.3 °F /  7.4 °C 42.1 °F /  5.6 °C 30.39in /  1029hPa WNW 1.3mph /  2.1km/h 3mph /  4.8km/h 88.4% 0.00in /  0mm 0 W/m2
01:09 45.3 °F /  7.4 °C 42.1 °F /  5.6 °C 30.39in /  1029hPa WNW 1.6mph /  2.6km/h 4mph /  6.4km/h 88.6% 0.00in /  0mm 0 W/m2
01:14 45.3 °F /  7.4 °C 42.2 °F /  5.7 °C 30.39in /  1029hPa WNW 2.5mph /  4km/h 5mph /  8km/h 88.9% 0.00in /  0mm 0 W/m2
01:19 45.5 °F /  7.5 °C 42.2 °F /  5.7 °C 30.39in /  1029hPa NW 2mph /  3.2km/h 5mph /  8km/h 88.4% 0.00in /  0mm 0 W/m2
01:24 45.5 °F /  7.5 °C 42.1 °F /  5.6 °C 30.39in /  1029hPa NW 1.8mph /  2.9km/h 4mph /  6.4km/h 88% 0.00in /  0mm 0 W/m2
01:29 45.5 °F /  7.5 °C 42.1 °F /  5.6 °C 30.39in /  1029hPa NW 0.4mph /  0.6km/h 4mph /  6.4km/h 88% 0.00in /  0mm 0 W/m2
01:34 45.6 °F /  7.6 °C 42.2 °F /  5.7 °C 30.39in /  1029hPa NW 1.1mph /  1.8km/h 3mph /  4.8km/h 88% 0.00in /  0mm 0 W/m2
01:39 45.7 °F /  7.6 °C 42.3 °F /  5.7 °C 30.39in /  1029hPa WNW 2.8mph /  4.5km/h 5mph /  8km/h 88% 0.00in /  0mm 0 W/m2
01:44 45.9 °F /  7.7 °C 42.3 °F /  5.7 °C 30.39in /  1029hPa WNW 3.6mph /  5.8km/h 6mph /  9.7km/h 87.3% 0.00in /  0mm 0 W/m2
01:49 46 °F /  7.8 °C 42.4 °F /  5.8 °C 30.39in /  1029hPa WNW 5.1mph /  8.2km/h 9mph /  14.5km/h 87% 0.00in /  0mm 0 W/m2
01:54 46.3 °F /  7.9 °C 42.7 °F /  5.9 °C 30.38in /  1028.7hPa WNW 5.9mph /  9.5km/h 11mph /  17.7km/h 87% 0.00in /  0mm 0 W/m2
01:59 46.7 °F /  8.2 °C 43.1 °F /  6.2 °C 30.38in /  1028.7hPa WNW 5.5mph /  8.9km/h 11mph /  17.7km/h 87% 0.00in /  0mm 0 W/m2
02:04 46.8 °F /  8.2 °C 43.2 °F /  6.2 °C 30.38in /  1028.7hPa WNW 5.1mph /  8.2km/h 10mph /  16.1km/h 87% 0.00in /  0mm 0 W/m2
02:09 46.9 °F /  8.3 °C 43.3 °F /  6.3 °C 30.38in /  1028.7hPa WNW 5.6mph /  9km/h 11mph /  17.7km/h 87% 0.00in /  0mm 0 W/m2
02:14 46.9 °F /  8.3 °C 43.3 °F /  6.3 °C 30.38in /  1028.7hPa WNW 6.5mph /  10.5km/h 12mph /  19.3km/h 87% 0.00in /  0mm 0 W/m2
02:19 46.9 °F /  8.3 °C 43.3 °F /  6.3 °C 30.38in /  1028.7hPa WNW 4.5mph /  7.2km/h 10mph /  16.1km/h 87.2% 0.00in /  0mm 0 W/m2
02:24 46.9 °F /  8.3 °C 43.5 °F /  6.4 °C 30.38in /  1028.7hPa WNW 5mph /  8km/h 10mph /  16.1km/h 87.9% 0.00in /  0mm 0 W/m2
02:29 46.9 °F /  8.3 °C 43.5 °F /  6.4 °C 30.37in /  1028.3hPa WNW 4.7mph /  7.6km/h 10mph /  16.1km/h 88% 0.00in /  0mm 0 W/m2
02:34 46.9 °F /  8.3 °C 43.5 °F /  6.4 °C 30.37in /  1028.3hPa WNW 3.3mph /  5.3km/h 7mph /  11.3km/h 88% 0.00in /  0mm 0 W/m2
02:39 46.9 °F /  8.3 °C 43.5 °F /  6.4 °C 30.37in /  1028.3hPa WNW 6.5mph /  10.5km/h 11mph /  17.7km/h 88% 0.00in /  0mm 0 W/m2
02:44 46.9 °F /  8.3 °C 43.5 °F /  6.4 °C 30.37in /  1028.3hPa West 5.8mph /  9.3km/h 11mph /  17.7km/h 88% 0.00in /  0mm 0 W/m2
02:49 46.9 °F /  8.3 °C 43.5 °F /  6.4 °C 30.37in /  1028.3hPa West 6mph /  9.7km/h 11mph /  17.7km/h 88% 0.00in /  0mm 0 W/m2
02:54 46.9 °F /  8.3 °C 43.5 °F /  6.4 °C 30.37in /  1028.3hPa WNW 6.2mph /  10km/h 11mph /  17.7km/h 88% 0.00in /  0mm 0 W/m2
02:59 46.8 °F /  8.2 °C 43.7 °F /  6.5 °C 30.37in /  1028.3hPa West 6mph /  9.7km/h 10mph /  16.1km/h 88.9% 0.00in /  0mm 0 W/m2
03:04 46.8 °F /  8.2 °C 43.7 °F /  6.5 °C 30.36in /  1028hPa West 6.9mph /  11.1km/h 16mph /  25.7km/h 89% 0.00in /  0mm 0 W/m2
03:09 46.8 °F /  8.2 °C 43.8 °F /  6.6 °C 30.36in /  1028hPa WNW 6.6mph /  10.6km/h 16mph /  25.7km/h 89% 0.00in /  0mm 0 W/m2
03:14 46.9 °F /  8.3 °C 43.9 °F /  6.6 °C 30.37in /  1028.3hPa West 6.6mph /  10.6km/h 14mph /  22.5km/h 89% 0.00in /  0mm 0 W/m2
03:19 46.9 °F /  8.3 °C 43.9 °F /  6.6 °C 30.36in /  1028hPa West 5mph /  8km/h 10mph /  16.1km/h 89% 0.00in /  0mm 0 W/m2
03:24 46.8 °F /  8.2 °C 43.7 °F /  6.5 °C 30.36in /  1028hPa West 4.8mph /  7.7km/h 12mph /  19.3km/h 89% 0.00in /  0mm 0 W/m2
03:29 46.8 °F /  8.2 °C 43.7 °F /  6.5 °C 30.35in /  1027.7hPa West 5.2mph /  8.4km/h 10mph /  16.1km/h 89% 0.00in /  0mm 0 W/m2
03:34 46.8 °F /  8.2 °C 43.7 °F /  6.5 °C 30.35in /  1027.7hPa WNW 4.8mph /  7.7km/h 10mph /  16.1km/h 89% 0.00in /  0mm 0 W/m2
03:39 46.8 °F /  8.2 °C 43.7 °F /  6.5 °C 30.35in /  1027.7hPa WNW 5.6mph /  9km/h 9mph /  14.5km/h 89% 0.00in /  0mm 0 W/m2
03:44 46.9 °F /  8.3 °C 44 °F /  6.7 °C 30.34in /  1027.3hPa WNW 7.4mph /  11.9km/h 14mph /  22.5km/h 89.4% 0.00in /  0mm 0 W/m2
03:49 46.9 °F /  8.3 °C 44.2 °F /  6.8 °C 30.34in /  1027.3hPa West 8.1mph /  13km/h 13mph /  20.9km/h 90% 0.00in /  0mm 0 W/m2
03:54 47 °F /  8.3 °C 44.3 °F /  6.8 °C 30.34in /  1027.3hPa West 7.4mph /  11.9km/h 13mph /  20.9km/h 90% 0.00in /  0mm 0 W/m2
03:59 47.1 °F /  8.4 °C 44.4 °F /  6.9 °C 30.34in /  1027.3hPa WNW 5.8mph /  9.3km/h 12mph /  19.3km/h 90% 0.00in /  0mm 0 W/m2
04:04 47.1 °F /  8.4 °C 44.4 °F /  6.9 °C 30.34in /  1027.3hPa West 5.6mph /  9km/h 10mph /  16.1km/h 90% 0.00in /  0mm 0 W/m2
04:09 47.1 °F /  8.4 °C 44.4 °F /  6.9 °C 30.33in /  1027hPa West 7.7mph /  12.4km/h 13mph /  20.9km/h 90% 0.00in /  0mm 0 W/m2
04:14 47.1 °F /  8.4 °C 44.4 °F /  6.9 °C 30.33in /  1027hPa WNW 6.7mph /  10.8km/h 13mph /  20.9km/h 90% 0.00in /  0mm 0 W/m2
04:19 47.1 °F /  8.4 °C 44.4 °F /  6.9 °C 30.33in /  1027hPa West 5.6mph /  9km/h 11mph /  17.7km/h 90% 0.00in /  0mm 0 W/m2
04:24 47.1 °F /  8.4 °C 44.4 °F /  6.9 °C 30.34in /  1027.3hPa WNW 6.5mph /  10.5km/h 11mph /  17.7km/h 90% 0.00in /  0mm 0 W/m2
04:29 47.1 °F /  8.4 °C 44.4 °F /  6.9 °C 30.34in /  1027.3hPa WNW 3mph /  4.8km/h 11mph /  17.7km/h 90% 0.00in /  0mm 0 W/m2
04:34 47.1 °F /  8.4 °C 44.4 °F /  6.9 °C 30.34in /  1027.3hPa West 4.8mph /  7.7km/h 9mph /  14.5km/h 90% 0.00in /  0mm 0 W/m2
04:39 47.1 °F /  8.4 °C 44.4 °F /  6.9 °C 30.33in /  1027hPa West 5.1mph /  8.2km/h 9mph /  14.5km/h 90% 0.00in /  0mm 0 W/m2
04:44 47.1 °F /  8.4 °C 44.4 °F /  6.9 °C 30.33in /  1027hPa West 4.4mph /  7.1km/h 9mph /  14.5km/h 90% 0.00in /  0mm 0 W/m2
04:49 47.1 °F /  8.4 °C 44.4 °F /  6.9 °C 30.33in /  1027hPa West 6.4mph /  10.3km/h 11mph /  17.7km/h 90% 0.00in /  0mm 0 W/m2
04:54 47.1 °F /  8.4 °C 44.4 °F /  6.9 °C 30.33in /  1027hPa West 5.2mph /  8.4km/h 11mph /  17.7km/h 90% 0.00in /  0mm 0 W/m2
04:59 47.1 °F /  8.4 °C 44.4 °F /  6.9 °C 30.33in /  1027hPa WNW 6.6mph /  10.6km/h 11mph /  17.7km/h 90% 0.00in /  0mm 0 W/m2
05:04 47.1 °F /  8.4 °C 44.5 °F /  6.9 °C 30.33in /  1027hPa West 8.1mph /  13km/h 14mph /  22.5km/h 90.7% 0.00in /  0mm 0 W/m2
05:09 47.1 °F /  8.4 °C 44.6 °F /  7 °C 30.32in /  1026.6hPa West 10.4mph /  16.7km/h 17mph /  27.4km/h 91% 0.00in /  0mm 0 W/m2
05:14 47.1 °F /  8.4 °C 44.6 °F /  7 °C 30.32in /  1026.6hPa West 6.6mph /  10.6km/h 14mph /  22.5km/h 91% 0.00in /  0mm 0 W/m2
05:19 47.1 °F /  8.4 °C 44.6 °F /  7 °C 30.32in /  1026.6hPa WNW 8.9mph /  14.3km/h 15mph /  24.1km/h 91% 0.00in /  0mm 0 W/m2
05:24 47.1 °F /  8.4 °C 44.6 °F /  7 °C 30.32in /  1026.6hPa WNW 7.5mph /  12.1km/h 15mph /  24.1km/h 91% 0.00in /  0mm 0 W/m2
05:29 47.1 °F /  8.4 °C 45 °F /  7.2 °C 30.32in /  1026.6hPa WNW 9.2mph /  14.8km/h 16mph /  25.7km/h 92% 0.00in /  0mm 0 W/m2
05:34 47.1 °F /  8.4 °C 45 °F /  7.2 °C 30.31in /  1026.3hPa WNW 8.4mph /  13.5km/h 16mph /  25.7km/h 92% 0.00in /  0mm 0 W/m2
05:39 47.1 °F /  8.4 °C 44.7 °F /  7.1 °C 30.31in /  1026.3hPa WNW 7.5mph /  12.1km/h 13mph /  20.9km/h 91.3% 0.00in /  0mm 0 W/m2
05:44 47.2 °F /  8.4 °C 44.7 °F /  7.1 °C 30.30in /  1026hPa WNW 9.6mph /  15.4km/h 19mph /  30.6km/h 91% 0.00in /  0mm 0 W/m2
05:49 47.3 °F /  8.5 °C 44.8 °F /  7.1 °C 30.30in /  1026hPa WNW 9mph /  14.5km/h 19mph /  30.6km/h 91% 0.00in /  0mm 0 W/m2
05:54 47.4 °F /  8.6 °C 44.7 °F /  7.1 °C 30.30in /  1026hPa WNW 7.9mph /  12.7km/h 17mph /  27.4km/h 90.3% 0.00in /  0mm 0 W/m2
05:59 47.5 °F /  8.6 °C 44.7 °F /  7.1 °C 30.30in /  1026hPa WNW 8.2mph /  13.2km/h 15mph /  24.1km/h 89.7% 0.00in /  0mm 0 W/m2
06:04 47.5 °F /  8.6 °C 44.4 °F /  6.9 °C 30.30in /  1026hPa WNW 8mph /  12.9km/h 13mph /  20.9km/h 89% 0.00in /  0mm 0 W/m2
06:09 47.5 °F /  8.6 °C 44.4 °F /  6.9 °C 30.30in /  1026hPa WNW 8.7mph /  14km/h 14mph /  22.5km/h 89% 0.00in /  0mm 0 W/m2
06:14 47.5 °F /  8.6 °C 44.4 °F /  6.9 °C 30.30in /  1026hPa WNW 7.1mph /  11.4km/h 14mph /  22.5km/h 89% 0.00in /  0mm 0 W/m2
06:19 47.5 °F /  8.6 °C 44.4 °F /  6.9 °C 30.30in /  1026hPa WNW 8.4mph /  13.5km/h 15mph /  24.1km/h 89% 0.00in /  0mm 0 W/m2
06:24 47.4 °F /  8.6 °C 44.3 °F /  6.8 °C 30.30in /  1026hPa WNW 8.3mph /  13.4km/h 15mph /  24.1km/h 89% 0.00in /  0mm 0 W/m2
06:29 47.4 °F /  8.6 °C 44.3 °F /  6.8 °C 30.29in /  1025.6hPa WNW 6.3mph /  10.1km/h 11mph /  17.7km/h 89% 0.00in /  0mm 0 W/m2
06:34 47.3 °F /  8.5 °C 44.2 °F /  6.8 °C 30.29in /  1025.6hPa WNW 8.5mph /  13.7km/h 13mph /  20.9km/h 89% 0.00in /  0mm 0 W/m2
06:39 47.3 °F /  8.5 °C 44.2 °F /  6.8 °C 30.29in /  1025.6hPa West 4.3mph /  6.9km/h 10mph /  16.1km/h 89% 0.00in /  0mm 0 W/m2
06:44 47.3 °F /  8.5 °C 44.2 °F /  6.8 °C 30.29in /  1025.6hPa WNW 5mph /  8km/h 10mph /  16.1km/h 89% 0.00in /  0mm 0 W/m2
06:49 47.3 °F /  8.5 °C 44.2 °F /  6.8 °C 30.29in /  1025.6hPa West 4.5mph /  7.2km/h 10mph /  16.1km/h 89% 0.00in /  0mm 0 W/m2
06:54 47.3 °F /  8.5 °C 44.6 °F /  7 °C 30.29in /  1025.6hPa West 7.5mph /  12.1km/h 13mph /  20.9km/h 90% 0.00in /  0mm 0 W/m2
06:59 47.3 °F /  8.5 °C 44.6 °F /  7 °C 30.29in /  1025.6hPa WNW 7mph /  11.3km/h 13mph /  20.9km/h 90% 0.00in /  0mm 0 W/m2
07:04 47.3 °F /  8.5 °C 44.6 °F /  7 °C 30.29in /  1025.6hPa WNW 6mph /  9.7km/h 10mph /  16.1km/h 90% 0.00in /  0mm 0 W/m2
07:09 47.3 °F /  8.5 °C 44.6 °F /  7 °C 30.29in /  1025.6hPa WNW 6.2mph /  10km/h 11mph /  17.7km/h 90% 0.00in /  0mm 0 W/m2
07:14 47.2 °F /  8.4 °C 44.5 °F /  6.9 °C 30.29in /  1025.6hPa WNW 6.4mph /  10.3km/h 14mph /  22.5km/h 90% 0.00in /  0mm 0 W/m2
07:19 47.1 °F /  8.4 °C 44.4 °F /  6.9 °C 30.29in /  1025.6hPa WNW 5.6mph /  9km/h 12mph /  19.3km/h 90% 0.00in /  0mm 0 W/m2
07:24 47.2 °F /  8.4 °C 44.5 °F /  6.9 °C 30.29in /  1025.6hPa WNW 10mph /  16.1km/h 15mph /  24.1km/h 90% 0.00in /  0mm 0 W/m2
07:29 47.3 °F /  8.5 °C 44.6 °F /  7 °C 30.29in /  1025.6hPa WNW 6.8mph /  10.9km/h 14mph /  22.5km/h 90% 0.00in /  0mm 0 W/m2
07:34 47.2 °F /  8.4 °C 44.5 °F /  6.9 °C 30.29in /  1025.6hPa WNW 7.8mph /  12.6km/h 13mph /  20.9km/h 90% 0.00in /  0mm 0 W/m2
07:39 47.2 °F /  8.4 °C 44.5 °F /  6.9 °C 30.29in /  1025.6hPa West 6.5mph /  10.5km/h 13mph /  20.9km/h 90% 0.00in /  0mm 0 W/m2
07:44 47.3 °F /  8.5 °C 44.6 °F /  7 °C 30.29in /  1025.6hPa West 6mph /  9.7km/h 13mph /  20.9km/h 90% 0.00in /  0mm 0 W/m2
07:49 47.3 °F /  8.5 °C 44.6 °F /  7 °C 30.29in /  1025.6hPa WNW 7.3mph /  11.7km/h 14mph /  22.5km/h 90% 0.00in /  0mm 0 W/m2
07:54 47.3 °F /  8.5 °C 44.6 °F /  7 °C 30.29in /  1025.6hPa West 6.2mph /  10km/h 14mph /  22.5km/h 90% 0.00in /  0mm 0 W/m2
07:59 47.3 °F /  8.5 °C 44.6 °F /  7 °C 30.28in /  1025.3hPa West 7.9mph /  12.7km/h 15mph /  24.1km/h 90% 0.00in /  0mm 0 W/m2
08:04 47.3 °F /  8.5 °C 44.6 °F /  7 °C 30.27in /  1024.9hPa WNW 6.7mph /  10.8km/h 15mph /  24.1km/h 90% 0.00in /  0mm 5 W/m2
08:09 47.4 °F /  8.6 °C 44.7 °F /  7.1 °C 30.28in /  1025.3hPa WNW 7.7mph /  12.4km/h 14mph /  22.5km/h 90% 0.00in /  0mm 0 W/m2
08:14 47.5 °F /  8.6 °C 44.8 °F /  7.1 °C 30.28in /  1025.3hPa WNW 10mph /  16.1km/h 17mph /  27.4km/h 90% 0.00in /  0mm 0 W/m2
08:19 47.5 °F /  8.6 °C 44.8 °F /  7.1 °C 30.28in /  1025.3hPa WNW 7.8mph /  12.6km/h 16mph /  25.7km/h 90% 0.00in /  0mm 0 W/m2
08:24 47.6 °F /  8.7 °C 44.8 °F /  7.1 °C 30.28in /  1025.3hPa West 8.6mph /  13.8km/h 14mph /  22.5km/h 90% 0.00in /  0mm 0 W/m2
08:29 47.7 °F /  8.7 °C 45 °F /  7.2 °C 30.28in /  1025.3hPa WNW 6.2mph /  10km/h 13mph /  20.9km/h 90% 0.00in /  0mm 5 W/m2
08:34 47.7 °F /  8.7 °C 45 °F /  7.2 °C 30.27in /  1024.9hPa West 10.3mph /  16.6km/h 15mph /  24.1km/h 90% 0.00in /  0mm 5 W/m2
08:39 47.7 °F /  8.7 °C 45.1 °F /  7.3 °C 30.27in /  1024.9hPa WNW 7.4mph /  11.9km/h 17mph /  27.4km/h 90.7% 0.00in /  0mm 0 W/m2
08:44 47.7 °F /  8.7 °C 45.1 °F /  7.3 °C 30.27in /  1024.9hPa WNW 9.1mph /  14.6km/h 14mph /  22.5km/h 91% 0.00in /  0mm 7 W/m2
08:49 47.7 °F /  8.7 °C 45.1 °F /  7.3 °C 30.27in /  1024.9hPa West 7.9mph /  12.7km/h 14mph /  22.5km/h 91% 0.00in /  0mm 7 W/m2
08:54 47.7 °F /  8.7 °C 45.1 °F /  7.3 °C 30.27in /  1024.9hPa West 7.1mph /  11.4km/h 14mph /  22.5km/h 91% 0.00in /  0mm 12 W/m2
08:59 47.7 °F /  8.7 °C 45.1 °F /  7.3 °C 30.27in /  1024.9hPa WNW 7mph /  11.3km/h 13mph /  20.9km/h 91% 0.00in /  0mm 12 W/m2
09:04 47.7 °F /  8.7 °C 45.3 °F /  7.4 °C 30.27in /  1024.9hPa WNW 6.4mph /  10.3km/h 13mph /  20.9km/h 91.6% 0.00in /  0mm 12 W/m2
09:09 47.7 °F /  8.7 °C 45.5 °F /  7.5 °C 30.27in /  1024.9hPa WNW 7.4mph /  11.9km/h 15mph /  24.1km/h 92% 0.00in /  0mm 18 W/m2
09:14 47.7 °F /  8.7 °C 45.6 °F /  7.6 °C 30.27in /  1024.9hPa WNW 7.8mph /  12.6km/h 14mph /  22.5km/h 92% 0.00in /  0mm 16 W/m2
09:19 47.8 °F /  8.8 °C 45.7 °F /  7.6 °C 30.27in /  1024.9hPa WNW 8.7mph /  14km/h 15mph /  24.1km/h 92% 0.00in /  0mm 16 W/m2
09:24 47.8 °F /  8.8 °C 45.7 °F /  7.6 °C 30.27in /  1024.9hPa WNW 8.1mph /  13km/h 15mph /  24.1km/h 92% 0.00in /  0mm 19 W/m2
09:29 47.8 °F /  8.8 °C 45.7 °F /  7.6 °C 30.27in /  1024.9hPa WNW 7.4mph /  11.9km/h 13mph /  20.9km/h 92% 0.00in /  0mm 21 W/m2
09:34 47.8 °F /  8.8 °C 45.7 °F /  7.6 °C 30.27in /  1024.9hPa WNW 6.7mph /  10.8km/h 15mph /  24.1km/h 92% 0.00in /  0mm 25 W/m2
09:39 47.8 °F /  8.8 °C 45.7 °F /  7.6 °C 30.27in /  1024.9hPa WNW 7.6mph /  12.2km/h 12mph /  19.3km/h 92% 0.00in /  0mm 28 W/m2
09:44 47.9 °F /  8.8 °C 45.8 °F /  7.7 °C 30.27in /  1024.9hPa WNW 7.5mph /  12.1km/h 14mph /  22.5km/h 92% 0.00in /  0mm 28 W/m2
09:49 48 °F /  8.9 °C 45.9 °F /  7.7 °C 30.27in /  1024.9hPa WNW 7.1mph /  11.4km/h 12mph /  19.3km/h 92% 0.00in /  0mm 40 W/m2
09:54 48 °F /  8.9 °C 46 °F /  7.8 °C 30.26in /  1024.6hPa WNW 10.3mph /  16.6km/h 19mph /  30.6km/h 93% 0.00in /  0mm 42 W/m2
09:59 48 °F /  8.9 °C 46 °F /  7.8 °C 30.26in /  1024.6hPa WNW 6.7mph /  10.8km/h 12mph /  19.3km/h 92.4% 0.00in /  0mm 39 W/m2
10:04 48.1 °F /  8.9 °C 46.1 °F /  7.8 °C 30.26in /  1024.6hPa WNW 8.5mph /  13.7km/h 15mph /  24.1km/h 92.9% 0.00in /  0mm 32 W/m2
10:09 48.2 °F /  9 °C 46.2 °F /  7.9 °C 30.26in /  1024.6hPa WNW 8.1mph /  13km/h 15mph /  24.1km/h 93% 0.00in /  0mm 26 W/m2
10:14 48.2 °F /  9 °C 46.2 °F /  7.9 °C 30.26in /  1024.6hPa WNW 7.5mph /  12.1km/h 14mph /  22.5km/h 93% 0.00in /  0mm 32 W/m2
10:19 48.3 °F /  9.1 °C 46.3 °F /  7.9 °C 30.26in /  1024.6hPa WNW 6.5mph /  10.5km/h 14mph /  22.5km/h 93% 0.00in /  0mm 35 W/m2
10:24 48.4 °F /  9.1 °C 46.4 °F /  8 °C 30.25in /  1024.3hPa WNW 5.6mph /  9km/h 13mph /  20.9km/h 93% 0.00in /  0mm 37 W/m2
10:29 48.5 °F /  9.2 °C 46.5 °F /  8.1 °C 30.25in /  1024.3hPa West 5.7mph /  9.2km/h 13mph /  20.9km/h 93% 0.00in /  0mm 35 W/m2
10:34 48.6 °F /  9.2 °C 46.5 °F /  8.1 °C 30.25in /  1024.3hPa WNW 8mph /  12.9km/h 13mph /  20.9km/h 92.7% 0.00in /  0mm 42 W/m2
10:39 48.6 °F /  9.2 °C 46.4 °F /  8 °C 30.24in /  1023.9hPa WNW 8.2mph /  13.2km/h 15mph /  24.1km/h 92% 0.00in /  0mm 54 W/m2
10:44 48.6 °F /  9.2 °C 46.5 °F /  8.1 °C 30.24in /  1023.9hPa WNW 7mph /  11.3km/h 15mph /  24.1km/h 92% 0.00in /  0mm 60 W/m2
10:49 48.7 °F /  9.3 °C 46.6 °F /  8.1 °C 30.24in /  1023.9hPa WNW 6.8mph /  10.9km/h 15mph /  24.1km/h 92% 0.00in /  0mm 56 W/m2
10:54 48.7 °F /  9.3 °C 46.6 °F /  8.1 °C 30.24in /  1023.9hPa WNW 7.2mph /  11.6km/h 15mph /  24.1km/h 92% 0.00in /  0mm 58 W/m2
10:59 48.7 °F /  9.3 °C 46.6 °F /  8.1 °C 30.24in /  1023.9hPa WNW 5.5mph /  8.9km/h 13mph /  20.9km/h 92% 0.00in /  0mm 69 W/m2
11:04 48.7 °F /  9.3 °C 46.6 °F /  8.1 °C 30.24in /  1023.9hPa WNW 5.4mph /  8.7km/h 11mph /  17.7km/h 92% 0.00in /  0mm 62 W/m2
11:09 48.9 °F /  9.4 °C 46.8 °F /  8.2 °C 30.24in /  1023.9hPa WNW 8mph /  12.9km/h 14mph /  22.5km/h 92% 0.00in /  0mm 56 W/m2
11:14 48.9 °F /  9.4 °C 46.8 °F /  8.2 °C 30.23in /  1023.6hPa WNW 9.9mph /  15.9km/h 18mph /  29km/h 92% 0.00in /  0mm 56 W/m2
11:19 49.1 °F /  9.5 °C 46.9 °F /  8.3 °C 30.23in /  1023.6hPa WNW 6.9mph /  11.1km/h 12mph /  19.3km/h 92% 0.00in /  0mm 62 W/m2
11:24 49.1 °F /  9.5 °C 46.9 °F /  8.3 °C 30.23in /  1023.6hPa WNW 5.7mph /  9.2km/h 13mph /  20.9km/h 91.8% 0.00in /  0mm 77 W/m2
11:29 49.3 °F /  9.6 °C 46.8 °F /  8.2 °C 30.24in /  1023.9hPa WNW 7.6mph /  12.2km/h 14mph /  22.5km/h 91% 0.00in /  0mm 83 W/m2
11:34 49.5 °F /  9.7 °C 46.9 °F /  8.3 °C 30.24in /  1023.9hPa NW 6.1mph /  9.8km/h 11mph /  17.7km/h 91% 0.00in /  0mm 72 W/m2
11:39 49.5 °F /  9.7 °C 46.9 °F /  8.3 °C 30.24in /  1023.9hPa WNW 7.3mph /  11.7km/h 13mph /  20.9km/h 90.9% 0.00in /  0mm 90 W/m2
11:44 49.5 °F /  9.7 °C 46.8 °F /  8.2 °C 30.24in /  1023.9hPa WNW 8.2mph /  13.2km/h 14mph /  22.5km/h 90.5% 0.00in /  0mm 93 W/m2
11:49 49.6 °F /  9.8 °C 46.8 °F /  8.2 °C 30.24in /  1023.9hPa West 5.6mph /  9km/h 12mph /  19.3km/h 90% 0.00in /  0mm 98 W/m2
11:54 49.6 °F /  9.8 °C 46.8 °F /  8.2 °C 30.23in /  1023.6hPa WNW 4.4mph /  7.1km/h 12mph /  19.3km/h 90% 0.00in /  0mm 111 W/m2
11:59 49.7 °F /  9.8 °C 46.8 °F /  8.2 °C 30.23in /  1023.6hPa WNW 6.5mph /  10.5km/h 13mph /  20.9km/h 90% 0.00in /  0mm 114 W/m2
12:04 49.8 °F /  9.9 °C 46.8 °F /  8.2 °C 30.23in /  1023.6hPa WNW 5.5mph /  8.9km/h 13mph /  20.9km/h 89% 0.00in /  0mm 114 W/m2
12:09 49.9 °F /  9.9 °C 46.8 °F /  8.2 °C 30.23in /  1023.6hPa WNW 5.3mph /  8.5km/h 11mph /  17.7km/h 89% 0.00in /  0mm 111 W/m2
12:14 50 °F /  10 °C 46.7 °F /  8.2 °C 30.23in /  1023.6hPa NW 7.8mph /  12.6km/h 14mph /  22.5km/h 88.2% 0.00in /  0mm 109 W/m2
12:19 50.1 °F /  10.1 °C 46.6 °F /  8.1 °C 30.23in /  1023.6hPa WNW 9.5mph /  15.3km/h 15mph /  24.1km/h 87.7% 0.00in /  0mm 111 W/m2
12:24 50.2 °F /  10.1 °C 46.4 °F /  8 °C 30.23in /  1023.6hPa WNW 8.1mph /  13km/h 15mph /  24.1km/h 86.8% 0.00in /  0mm 116 W/m2
12:29 50.4 °F /  10.2 °C 46.3 °F /  7.9 °C 30.23in /  1023.6hPa NW 6.5mph /  10.5km/h 15mph /  24.1km/h 85.8% 0.00in /  0mm 120 W/m2
12:34 50.4 °F /  10.2 °C 45.9 °F /  7.7 °C 30.23in /  1023.6hPa WNW 10.2mph /  16.4km/h 22mph /  35.4km/h 84.5% 0.00in /  0mm 120 W/m2
12:39 50.5 °F /  10.3 °C 45.4 °F /  7.4 °C 30.23in /  1023.6hPa WNW 10.4mph /  16.7km/h 18mph /  29km/h 82.7% 0.00in /  0mm 120 W/m2
12:44 50.5 °F /  10.3 °C 45.2 °F /  7.3 °C 30.22in /  1023.2hPa WNW 9mph /  14.5km/h 17mph /  27.4km/h 81.5% 0.00in /  0mm 120 W/m2
12:49 50.6 °F /  10.3 °C 45 °F /  7.2 °C 30.22in /  1023.2hPa NW 7.1mph /  11.4km/h 17mph /  27.4km/h 81% 0.00in /  0mm 105 W/m2
12:54 50.5 °F /  10.3 °C 44.7 °F /  7.1 °C 30.22in /  1023.2hPa WNW 8.5mph /  13.7km/h 17mph /  27.4km/h 80.1% 0.00in /  0mm 93 W/m2
12:59 50.5 °F /  10.3 °C 44.4 °F /  6.9 °C 30.22in /  1023.2hPa WNW 8.2mph /  13.2km/h 13mph /  20.9km/h 79.6% 0.00in /  0mm 88 W/m2
13:04 50.5 °F /  10.3 °C 44.2 °F /  6.8 °C 30.22in /  1023.2hPa WNW 7mph /  11.3km/h 14mph /  22.5km/h 79% 0.00in /  0mm 84 W/m2
13:09 50.5 °F /  10.3 °C 44.2 °F /  6.8 °C 30.22in /  1023.2hPa WNW 6.2mph /  10km/h 11mph /  17.7km/h 79% 0.00in /  0mm 76 W/m2
13:14 50.5 °F /  10.3 °C 44.3 °F /  6.8 °C 30.22in /  1023.2hPa WNW 7.7mph /  12.4km/h 13mph /  20.9km/h 79.1% 0.00in /  0mm 56 W/m2
13:19 50.5 °F /  10.3 °C 44.6 °F /  7 °C 30.22in /  1023.2hPa WNW 6.7mph /  10.8km/h 13mph /  20.9km/h 80% 0.00in /  0mm 67 W/m2
13:24 50.4 °F /  10.2 °C 44.6 °F /  7 °C 30.22in /  1023.2hPa WNW 9mph /  14.5km/h 14mph /  22.5km/h 80.3% 0.00in /  0mm 67 W/m2
13:29 50.3 °F /  10.2 °C 44.8 °F /  7.1 °C 30.21in /  1022.9hPa WNW 11.3mph /  18.2km/h 20mph /  32.2km/h 81.1% 0.00in /  0mm 83 W/m2
13:34 50 °F /  10 °C 44.7 °F /  7.1 °C 30.22in /  1023.2hPa WNW 8.5mph /  13.7km/h 20mph /  32.2km/h 81.8% 0.00in /  0mm 90 W/m2
13:39 50 °F /  10 °C 44.8 °F /  7.1 °C 30.21in /  1022.9hPa WNW 8.2mph /  13.2km/h 17mph /  27.4km/h 82% 0.00in /  0mm 102 W/m2
13:44 50 °F /  10 °C 44.8 °F /  7.1 °C 30.21in /  1022.9hPa WNW 7.8mph /  12.6km/h 13mph /  20.9km/h 82% 0.00in /  0mm 111 W/m2
13:49 50 °F /  10 °C 44.8 °F /  7.1 °C 30.21in /  1022.9hPa WNW 8mph /  12.9km/h 17mph /  27.4km/h 82% 0.00in /  0mm 111 W/m2
13:54 49.9 °F /  9.9 °C 44.7 °F /  7.1 °C 30.21in /  1022.9hPa WNW 7.1mph /  11.4km/h 14mph /  22.5km/h 82% 0.00in /  0mm 86 W/m2
13:59 49.8 °F /  9.9 °C 44.6 °F /  7 °C 30.21in /  1022.9hPa WNW 7.6mph /  12.2km/h 15mph /  24.1km/h 82% 0.00in /  0mm 91 W/m2
14:04 49.8 °F /  9.9 °C 44.6 °F /  7 °C 30.21in /  1022.9hPa WNW 7.3mph /  11.7km/h 13mph /  20.9km/h 82% 0.00in /  0mm 74 W/m2
14:09 49.8 °F /  9.9 °C 44.6 °F /  7 °C 30.21in /  1022.9hPa WNW 6.5mph /  10.5km/h 11mph /  17.7km/h 82% 0.00in /  0mm 70 W/m2
14:14 49.8 °F /  9.9 °C 44.3 °F /  6.8 °C 30.21in /  1022.9hPa WNW 7.1mph /  11.4km/h 12mph /  19.3km/h 81.1% 0.00in /  0mm 76 W/m2
14:19 49.8 °F /  9.9 °C 44.1 °F /  6.7 °C 30.20in /  1022.6hPa WNW 10mph /  16.1km/h 16mph /  25.7km/h 80.5% 0.00in /  0mm 79 W/m2
14:24 49.8 °F /  9.9 °C 43.9 °F /  6.6 °C 30.20in /  1022.6hPa WNW 7.3mph /  11.7km/h 16mph /  25.7km/h 80% 0.00in /  0mm 81 W/m2
14:29 49.8 °F /  9.9 °C 43.8 °F /  6.6 °C 30.20in /  1022.6hPa WNW 9mph /  14.5km/h 17mph /  27.4km/h 79.9% 0.00in /  0mm 81 W/m2
14:34 49.8 °F /  9.9 °C 43.8 °F /  6.6 °C 30.20in /  1022.6hPa WNW 7.7mph /  12.4km/h 17mph /  27.4km/h 79.8% 0.00in /  0mm 79 W/m2
14:39 49.7 °F /  9.8 °C 43.8 °F /  6.6 °C 30.20in /  1022.6hPa WNW 5.9mph /  9.5km/h 13mph /  20.9km/h 80% 0.00in /  0mm 86 W/m2
14:44 49.6 °F /  9.8 °C 43.7 °F /  6.5 °C 30.20in /  1022.6hPa WNW 7.4mph /  11.9km/h 15mph /  24.1km/h 80% 0.00in /  0mm 86 W/m2
14:49 49.6 °F /  9.8 °C 43.6 °F /  6.4 °C 30.20in /  1022.6hPa WNW 9.5mph /  15.3km/h 17mph /  27.4km/h 79.8% 0.00in /  0mm 84 W/m2
14:54 49.6 °F /  9.8 °C 43.4 °F /  6.3 °C 30.20in /  1022.6hPa NW 4.1mph /  6.6km/h 13mph /  20.9km/h 79.2% 0.00in /  0mm 77 W/m2
14:59 49.6 °F /  9.8 °C 43.3 °F /  6.3 °C 30.20in /  1022.6hPa NW 6.1mph /  9.8km/h 18mph /  29km/h 79% 0.00in /  0mm 62 W/m2
15:04 49.6 °F /  9.8 °C 43.1 °F /  6.2 °C 30.20in /  1022.6hPa NW 9mph /  14.5km/h 18mph /  29km/h 78.2% 0.00in /  0mm 54 W/m2
15:09 49.6 °F /  9.8 °C 43 °F /  6.1 °C 30.20in /  1022.6hPa NW 7.6mph /  12.2km/h 13mph /  20.9km/h 78% 0.00in /  0mm 49 W/m2
15:14 49.6 °F /  9.8 °C 43 °F /  6.1 °C 30.20in /  1022.6hPa WNW 5.9mph /  9.5km/h 11mph /  17.7km/h 78% 0.00in /  0mm 47 W/m2
15:19 49.6 °F /  9.8 °C 42.9 °F /  6.1 °C 30.20in /  1022.6hPa WNW 6.8mph /  10.9km/h 14mph /  22.5km/h 78% 0.00in /  0mm 44 W/m2
15:24 49.5 °F /  9.7 °C 42.9 °F /  6.1 °C 30.20in /  1022.6hPa WNW 5.9mph /  9.5km/h 14mph /  22.5km/h 78.3% 0.00in /  0mm 44 W/m2
15:29 49.3 °F /  9.6 °C 43 °F /  6.1 °C 30.20in /  1022.6hPa WNW 5.2mph /  8.4km/h 9mph /  14.5km/h 79% 0.00in /  0mm 42 W/m2
15:34 49.1 °F /  9.5 °C 43 °F /  6.1 °C 30.20in /  1022.6hPa WNW 6mph /  9.7km/h 12mph /  19.3km/h 79.6% 0.00in /  0mm 42 W/m2
15:39 48.9 °F /  9.4 °C 43.1 °F /  6.2 °C 30.20in /  1022.6hPa WNW 9.4mph /  15.1km/h 16mph /  25.7km/h 80.3% 0.00in /  0mm 37 W/m2
15:44 48.7 °F /  9.3 °C 43.2 °F /  6.2 °C 30.20in /  1022.6hPa WNW 9mph /  14.5km/h 19mph /  30.6km/h 81% 0.00in /  0mm 30 W/m2
15:49 48.6 °F /  9.2 °C 43.2 °F /  6.2 °C 30.20in /  1022.6hPa WNW 6.8mph /  10.9km/h 19mph /  30.6km/h 81.6% 0.00in /  0mm 25 W/m2
15:54 48.6 °F /  9.2 °C 43.3 °F /  6.3 °C 30.20in /  1022.6hPa WNW 9.3mph /  15km/h 14mph /  22.5km/h 82% 0.00in /  0mm 21 W/m2
15:59 48.6 °F /  9.2 °C 43.3 °F /  6.3 °C 30.20in /  1022.6hPa WNW 8.1mph /  13km/h 14mph /  22.5km/h 82% 0.00in /  0mm 18 W/m2
16:04 48.6 °F /  9.2 °C 43.3 °F /  6.3 °C 30.20in /  1022.6hPa WNW 7.4mph /  11.9km/h 16mph /  25.7km/h 82% 0.00in /  0mm 12 W/m2
16:09 48.6 °F /  9.2 °C 43.3 °F /  6.3 °C 30.20in /  1022.6hPa WNW 6.5mph /  10.5km/h 11mph /  17.7km/h 82% 0.00in /  0mm 7 W/m2
16:14 48.6 °F /  9.2 °C 43.3 °F /  6.3 °C 30.20in /  1022.6hPa WNW 6.8mph /  10.9km/h 12mph /  19.3km/h 82% 0.00in /  0mm 5 W/m2
16:19 48.6 °F /  9.2 °C 43.3 °F /  6.3 °C 30.20in /  1022.6hPa WNW 6.4mph /  10.3km/h 12mph /  19.3km/h 82% 0.00in /  0mm 0 W/m2
16:24 48.5 °F /  9.2 °C 43.3 °F /  6.3 °C 30.20in /  1022.6hPa West 7mph /  11.3km/h 10mph /  16.1km/h 82% 0.00in /  0mm 0 W/m2
16:29 48.3 °F /  9.1 °C 43.1 °F /  6.2 °C 30.20in /  1022.6hPa West 8mph /  12.9km/h 14mph /  22.5km/h 82% 0.00in /  0mm 0 W/m2
16:34 48.2 °F /  9 °C 43.2 °F /  6.2 °C 30.20in /  1022.6hPa West 7.4mph /  11.9km/h 14mph /  22.5km/h 82.7% 0.00in /  0mm 0 W/m2
16:39 48.2 °F /  9 °C 43.1 °F /  6.2 °C 30.20in /  1022.6hPa WNW 7.3mph /  11.7km/h 14mph /  22.5km/h 82.5% 0.00in /  0mm 0 W/m2
16:44 48.2 °F /  9 °C 43 °F /  6.1 °C 30.20in /  1022.6hPa WNW 5.5mph /  8.9km/h 13mph /  20.9km/h 82% 0.00in /  0mm 0 W/m2
16:49 48 °F /  8.9 °C 42.8 °F /  6 °C 30.20in /  1022.6hPa WNW 5.4mph /  8.7km/h 10mph /  16.1km/h 82% 0.00in /  0mm 0 W/m2
16:54 48 °F /  8.9 °C 42.8 °F /  6 °C 30.20in /  1022.6hPa West 5.3mph /  8.5km/h 10mph /  16.1km/h 82% 0.00in /  0mm 0 W/m2
16:59 47.8 °F /  8.8 °C 42.6 °F /  5.9 °C 30.20in /  1022.6hPa WNW 5.4mph /  8.7km/h 11mph /  17.7km/h 82% 0.00in /  0mm 0 W/m2
17:04 47.8 °F /  8.8 °C 42.6 °F /  5.9 °C 30.20in /  1022.6hPa WNW 4.7mph /  7.6km/h 8mph /  12.9km/h 82% 0.00in /  0mm 0 W/m2
17:09 47.8 °F /  8.8 °C 42.6 °F /  5.9 °C 30.20in /  1022.6hPa WNW 7.7mph /  12.4km/h 12mph /  19.3km/h 82% 0.00in /  0mm 0 W/m2
17:14 47.7 °F /  8.7 °C 42.5 °F /  5.8 °C 30.20in /  1022.6hPa West 5.5mph /  8.9km/h 12mph /  19.3km/h 82% 0.00in /  0mm 0 W/m2
17:19 47.7 °F /  8.7 °C 42.4 °F /  5.8 °C 30.20in /  1022.6hPa West 5.4mph /  8.7km/h 10mph /  16.1km/h 82% 0.00in /  0mm 0 W/m2
17:24 47.6 °F /  8.7 °C 42.4 °F /  5.8 °C 30.19in /  1022.2hPa WNW 4.7mph /  7.6km/h 9mph /  14.5km/h 82% 0.00in /  0mm 0 W/m2
17:29 47.4 °F /  8.6 °C 42.2 °F /  5.7 °C 30.19in /  1022.2hPa West 4.4mph /  7.1km/h 8mph /  12.9km/h 82% 0.00in /  0mm 0 W/m2
17:34 47.3 °F /  8.5 °C 42.1 °F /  5.6 °C 30.20in /  1022.6hPa WNW 3.3mph /  5.3km/h 8mph /  12.9km/h 82% 0.00in /  0mm 0 W/m2
17:39 47.3 °F /  8.5 °C 42.1 °F /  5.6 °C 30.20in /  1022.6hPa West 3.6mph /  5.8km/h 9mph /  14.5km/h 82% 0.00in /  0mm 0 W/m2
17:44 47.3 °F /  8.5 °C 42.1 °F /  5.6 °C 30.20in /  1022.6hPa WNW 3.5mph /  5.6km/h 8mph /  12.9km/h 82% 0.00in /  0mm 0 W/m2
17:49 47.2 °F /  8.4 °C 42.2 °F /  5.7 °C 30.20in /  1022.6hPa WNW 6.4mph /  10.3km/h 10mph /  16.1km/h 82.5% 0.00in /  0mm 0 W/m2
17:54 47.1 °F /  8.4 °C 42.3 °F /  5.7 °C 30.20in /  1022.6hPa WNW 7.5mph /  12.1km/h 12mph /  19.3km/h 83% 0.00in /  0mm 0 W/m2
17:59 47.1 °F /  8.4 °C 42.3 °F /  5.7 °C 30.20in /  1022.6hPa WNW 7.9mph /  12.7km/h 13mph /  20.9km/h 83% 0.00in /  0mm 0 W/m2
18:04 47.2 °F /  8.4 °C 42.6 °F /  5.9 °C 30.19in /  1022.2hPa WNW 7.6mph /  12.2km/h 13mph /  20.9km/h 83.7% 0.00in /  0mm 0 W/m2
18:09 47.1 °F /  8.4 °C 42.6 °F /  5.9 °C 30.19in /  1022.2hPa WNW 6.7mph /  10.8km/h 12mph /  19.3km/h 84% 0.00in /  0mm 0 W/m2
18:14 47.1 °F /  8.4 °C 42.6 °F /  5.9 °C 30.19in /  1022.2hPa West 8.3mph /  13.4km/h 13mph /  20.9km/h 84% 0.00in /  0mm 0 W/m2
18:19 47.1 °F /  8.4 °C 42.6 °F /  5.9 °C 30.19in /  1022.2hPa WNW 6.8mph /  10.9km/h 11mph /  17.7km/h 84.2% 0.00in /  0mm 0 W/m2
18:24 47.1 °F /  8.4 °C 42.8 °F /  6 °C 30.19in /  1022.2hPa WNW 7.4mph /  11.9km/h 13mph /  20.9km/h 85% 0.00in /  0mm 0 W/m2
18:29 47.1 °F /  8.4 °C 42.8 °F /  6 °C 30.19in /  1022.2hPa WNW 7.8mph /  12.6km/h 13mph /  20.9km/h 85% 0.00in /  0mm 0 W/m2
18:34 47.1 °F /  8.4 °C 42.9 °F /  6.1 °C 30.19in /  1022.2hPa WNW 7.3mph /  11.7km/h 13mph /  20.9km/h 85.3% 0.00in /  0mm 0 W/m2
18:39 47.3 °F /  8.5 °C 43.2 °F /  6.2 °C 30.19in /  1022.2hPa West 6.6mph /  10.6km/h 11mph /  17.7km/h 85.8% 0.00in /  0mm 0 W/m2
18:44 47.3 °F /  8.5 °C 43.3 °F /  6.3 °C 30.19in /  1022.2hPa West 7.8mph /  12.6km/h 14mph /  22.5km/h 86% 0.00in /  0mm 0 W/m2
18:49 47.3 °F /  8.5 °C 43.3 °F /  6.3 °C 30.19in /  1022.2hPa West 7.5mph /  12.1km/h 13mph /  20.9km/h 86% 0.00in /  0mm 0 W/m2
18:54 47.4 °F /  8.6 °C 43.4 °F /  6.3 °C 30.19in /  1022.2hPa WNW 6.2mph /  10km/h 13mph /  20.9km/h 86% 0.00in /  0mm 0 W/m2
18:59 47.5 °F /  8.6 °C 43.5 °F /  6.4 °C 30.19in /  1022.2hPa WNW 6.1mph /  9.8km/h 13mph /  20.9km/h 86% 0.00in /  0mm 0 W/m2
19:04 47.5 °F /  8.6 °C 43.5 °F /  6.4 °C 30.19in /  1022.2hPa WNW 7mph /  11.3km/h 12mph /  19.3km/h 86% 0.00in /  0mm 0 W/m2
19:09 47.6 °F /  8.7 °C 43.6 °F /  6.4 °C 30.19in /  1022.2hPa WNW 7.3mph /  11.7km/h 14mph /  22.5km/h 86% 0.00in /  0mm 0 W/m2
19:14 47.6 °F /  8.7 °C 43.6 °F /  6.4 °C 30.19in /  1022.2hPa West 6.3mph /  10.1km/h 12mph /  19.3km/h 86% 0.00in /  0mm 0 W/m2
19:19 47.7 °F /  8.7 °C 43.7 °F /  6.5 °C 30.19in /  1022.2hPa WNW 7.1mph /  11.4km/h 13mph /  20.9km/h 86% 0.00in /  0mm 0 W/m2
19:24 47.7 °F /  8.7 °C 43.7 °F /  6.5 °C 30.19in /  1022.2hPa WNW 8.8mph /  14.2km/h 16mph /  25.7km/h 86% 0.00in /  0mm 0 W/m2
19:29 47.7 °F /  8.7 °C 43.7 °F /  6.5 °C 30.18in /  1021.9hPa WNW 9mph /  14.5km/h 16mph /  25.7km/h 86% 0.00in /  0mm 0 W/m2
19:34 47.7 °F /  8.7 °C 43.7 °F /  6.5 °C 30.18in /  1021.9hPa WNW 7.4mph /  11.9km/h 15mph /  24.1km/h 86% 0.00in /  0mm 0 W/m2
19:39 47.7 °F /  8.7 °C 43.7 °F /  6.5 °C 30.18in /  1021.9hPa WNW 9mph /  14.5km/h 15mph /  24.1km/h 86% 0.00in /  0mm 0 W/m2
19:44 47.7 °F /  8.7 °C 43.7 °F /  6.5 °C 30.18in /  1021.9hPa WNW 6.2mph /  10km/h 14mph /  22.5km/h 86% 0.00in /  0mm 0 W/m2
19:49 47.7 °F /  8.7 °C 43.8 °F /  6.6 °C 30.18in /  1021.9hPa WNW 5.7mph /  9.2km/h 13mph /  20.9km/h 86.2% 0.00in /  0mm 0 W/m2
19:54 47.7 °F /  8.7 °C 44.1 °F /  6.7 °C 30.19in /  1022.2hPa WNW 5.5mph /  8.9km/h 11mph /  17.7km/h 87% 0.00in /  0mm 0 W/m2
19:59 47.7 °F /  8.7 °C 44.1 °F /  6.7 °C 30.19in /  1022.2hPa WNW 4.9mph /  7.9km/h 9mph /  14.5km/h 87% 0.00in /  0mm 0 W/m2
20:04 47.7 °F /  8.7 °C 44.1 °F /  6.7 °C 30.19in /  1022.2hPa WNW 6.2mph /  10km/h 10mph /  16.1km/h 87% 0.00in /  0mm 0 W/m2
20:09 47.8 °F /  8.8 °C 44.2 °F /  6.8 °C 30.19in /  1022.2hPa WNW 7.5mph /  12.1km/h 12mph /  19.3km/h 87% 0.00in /  0mm 0 W/m2
20:14 47.8 °F /  8.8 °C 44.2 °F /  6.8 °C 30.19in /  1022.2hPa WNW 4.9mph /  7.9km/h 12mph /  19.3km/h 87% 0.00in /  0mm 0 W/m2
20:19 47.8 °F /  8.8 °C 44.2 °F /  6.8 °C 30.19in /  1022.2hPa WNW 5.7mph /  9.2km/h 11mph /  17.7km/h 87% 0.00in /  0mm 0 W/m2
20:24 47.8 °F /  8.8 °C 44.3 °F /  6.8 °C 30.19in /  1022.2hPa WNW 5.7mph /  9.2km/h 11mph /  17.7km/h 87.4% 0.00in /  0mm 0 W/m2
20:29 47.8 °F /  8.8 °C 44.4 °F /  6.9 °C 30.19in /  1022.2hPa WNW 6.6mph /  10.6km/h 13mph /  20.9km/h 88% 0.00in /  0mm 0 W/m2
20:34 47.8 °F /  8.8 °C 44.4 °F /  6.9 °C 30.19in /  1022.2hPa WNW 4.4mph /  7.1km/h 9mph /  14.5km/h 88% 0.00in /  0mm 0 W/m2
20:39 47.8 °F /  8.8 °C 44.4 °F /  6.9 °C 30.19in /  1022.2hPa WNW 4.5mph /  7.2km/h 10mph /  16.1km/h 88% 0.00in /  0mm 0 W/m2
20:44 47.9 °F /  8.8 °C 44.5 °F /  6.9 °C 30.19in /  1022.2hPa WNW 4.4mph /  7.1km/h 10mph /  16.1km/h 88% 0.00in /  0mm 0 W/m2
20:49 48 °F /  8.9 °C 44.6 °F /  7 °C 30.18in /  1021.9hPa WNW 4.6mph /  7.4km/h 9mph /  14.5km/h 88% 0.00in /  0mm 0 W/m2
20:54 48 °F /  8.9 °C 44.6 °F /  7 °C 30.18in /  1021.9hPa WNW 7mph /  11.3km/h 11mph /  17.7km/h 88% 0.00in /  0mm 0 W/m2
20:59 48.2 °F /  9 °C 44.8 °F /  7.1 °C 30.19in /  1022.2hPa WNW 6.1mph /  9.8km/h 11mph /  17.7km/h 88% 0.00in /  0mm 0 W/m2
21:04 48.2 °F /  9 °C 44.8 °F /  7.1 °C 30.19in /  1022.2hPa WNW 5.3mph /  8.5km/h 10mph /  16.1km/h 88% 0.00in /  0mm 0 W/m2
21:09 48.2 °F /  9 °C 44.8 °F /  7.1 °C 30.18in /  1021.9hPa WNW 6.7mph /  10.8km/h 10mph /  16.1km/h 88% 0.00in /  0mm 0 W/m2
21:14 48.2 °F /  9 °C 44.8 °F /  7.1 °C 30.18in /  1021.9hPa WNW 7.8mph /  12.6km/h 11mph /  17.7km/h 88% 0.00in /  0mm 0 W/m2
21:19 48.2 °F /  9 °C 44.8 °F /  7.1 °C 30.18in /  1021.9hPa WNW 8.2mph /  13.2km/h 12mph /  19.3km/h 88% 0.00in /  0mm 0 W/m2
21:24 48.2 °F /  9 °C 44.8 °F /  7.1 °C 30.18in /  1021.9hPa WNW 7.8mph /  12.6km/h 11mph /  17.7km/h 88% 0.00in /  0mm 0 W/m2
21:29 48.2 °F /  9 °C 44.8 °F /  7.1 °C 30.18in /  1021.9hPa WNW 8.5mph /  13.7km/h 14mph /  22.5km/h 88% 0.00in /  0mm 0 W/m2
21:34 48.4 °F /  9.1 °C 45 °F /  7.2 °C 30.18in /  1021.9hPa WNW 7.6mph /  12.2km/h 13mph /  20.9km/h 88% 0.00in /  0mm 0 W/m2
21:39 48.4 °F /  9.1 °C 45 °F /  7.2 °C 30.18in /  1021.9hPa WNW 6.9mph /  11.1km/h 13mph /  20.9km/h 88% 0.00in /  0mm 0 W/m2
21:44 48.3 °F /  9.1 °C 44.9 °F /  7.2 °C 30.18in /  1021.9hPa WNW 7.2mph /  11.6km/h 13mph /  20.9km/h 88% 0.00in /  0mm 0 W/m2
21:49 48.2 °F /  9 °C 44.8 °F /  7.1 °C 30.18in /  1021.9hPa WNW 7.9mph /  12.7km/h 12mph /  19.3km/h 88% 0.00in /  0mm 0 W/m2
21:54 48.2 °F /  9 °C 44.8 °F /  7.1 °C 30.18in /  1021.9hPa WNW 7.7mph /  12.4km/h 12mph /  19.3km/h 88% 0.00in /  0mm 0 W/m2
21:59 48.2 °F /  9 °C 44.8 °F /  7.1 °C 30.18in /  1021.9hPa WNW 7mph /  11.3km/h 12mph /  19.3km/h 88% 0.00in /  0mm 0 W/m2
22:04 48.2 °F /  9 °C 44.8 °F /  7.1 °C 30.18in /  1021.9hPa WNW 7.6mph /  12.2km/h 13mph /  20.9km/h 88% 0.00in /  0mm 0 W/m2
22:09 48.1 °F /  8.9 °C 44.7 °F /  7.1 °C 30.18in /  1021.9hPa WNW 7.2mph /  11.6km/h 11mph /  17.7km/h 88% 0.00in /  0mm 0 W/m2
22:14 48.2 °F /  9 °C 44.8 °F /  7.1 °C 30.17in /  1021.6hPa WNW 6.6mph /  10.6km/h 11mph /  17.7km/h 88% 0.00in /  0mm 0 W/m2
22:19 48.2 °F /  9 °C 44.8 °F /  7.1 °C 30.17in /  1021.6hPa WNW 6.9mph /  11.1km/h 11mph /  17.7km/h 88% 0.00in /  0mm 0 W/m2
22:24 48.3 °F /  9.1 °C 44.9 °F /  7.2 °C 30.17in /  1021.6hPa WNW 8.1mph /  13km/h 12mph /  19.3km/h 88% 0.00in /  0mm 0 W/m2
22:29 48.5 °F /  9.2 °C 45.1 °F /  7.3 °C 30.17in /  1021.6hPa NW 3.7mph /  6km/h 11mph /  17.7km/h 88% 0.00in /  0mm 0 W/m2
22:34 48.6 °F /  9.2 °C 45.1 °F /  7.3 °C 30.17in /  1021.6hPa WNW 5.5mph /  8.9km/h 11mph /  17.7km/h 88% 0.00in /  0mm 0 W/m2
22:39 48.6 °F /  9.2 °C 45.1 °F /  7.3 °C 30.17in /  1021.6hPa WNW 6.1mph /  9.8km/h 9mph /  14.5km/h 88% 0.00in /  0mm 0 W/m2
22:44 48.7 °F /  9.3 °C 45.3 °F /  7.4 °C 30.17in /  1021.6hPa WNW 6mph /  9.7km/h 9mph /  14.5km/h 88% 0.00in /  0mm 0 W/m2
22:49 48.7 °F /  9.3 °C 45.2 °F /  7.3 °C 30.17in /  1021.6hPa WNW 6.6mph /  10.6km/h 10mph /  16.1km/h 88% 0.00in /  0mm 0 W/m2
22:54 48.6 °F /  9.2 °C 45.1 °F /  7.3 °C 30.17in /  1021.6hPa WNW 7.6mph /  12.2km/h 11mph /  17.7km/h 88% 0.00in /  0mm 0 W/m2
22:59 48.5 °F /  9.2 °C 45.1 °F /  7.3 °C 30.17in /  1021.6hPa WNW 8.9mph /  14.3km/h 16mph /  25.7km/h 88% 0.00in /  0mm 0 W/m2
23:04 48.4 °F /  9.1 °C 45.1 °F /  7.3 °C 30.17in /  1021.6hPa WNW 5.8mph /  9.3km/h 12mph /  19.3km/h 88.4% 0.00in /  0mm 0 W/m2
23:09 48.4 °F /  9.1 °C 45.3 °F /  7.4 °C 30.17in /  1021.6hPa NW 5.1mph /  8.2km/h 10mph /  16.1km/h 89% 0.00in /  0mm 0 W/m2
23:14 48.4 °F /  9.1 °C 45.3 °F /  7.4 °C 30.17in /  1021.6hPa WNW 5.8mph /  9.3km/h 11mph /  17.7km/h 89% 0.00in /  0mm 0 W/m2
23:19 48.3 °F /  9.1 °C 45.2 °F /  7.3 °C 30.17in /  1021.6hPa WNW 4.5mph /  7.2km/h 11mph /  17.7km/h 89% 0.00in /  0mm 0 W/m2
23:24 48.3 °F /  9.1 °C 45.2 °F /  7.3 °C 30.16in /  1021.2hPa NW 4.9mph /  7.9km/h 9mph /  14.5km/h 89% 0.00in /  0mm 0 W/m2
23:29 48.4 °F /  9.1 °C 45.4 °F /  7.4 °C 30.16in /  1021.2hPa WNW 6.6mph /  10.6km/h 10mph /  16.1km/h 89.3% 0.00in /  0mm 0 W/m2
23:34 48.5 °F /  9.2 °C 45.6 °F /  7.6 °C 30.16in /  1021.2hPa WNW 5.8mph /  9.3km/h 11mph /  17.7km/h 90% 0.00in /  0mm 0 W/m2
23:39 48.4 °F /  9.1 °C 45.5 °F /  7.5 °C 30.16in /  1021.2hPa WNW 5.4mph /  8.7km/h 10mph /  16.1km/h 90% 0.00in /  0mm 0 W/m2
23:44 48.4 °F /  9.1 °C 45.5 °F /  7.5 °C 30.16in /  1021.2hPa WNW 4.9mph /  7.9km/h 10mph /  16.1km/h 90% 0.00in /  0mm 0 W/m2
23:49 48.4 °F /  9.1 °C 45.5 °F /  7.5 °C 30.16in /  1021.2hPa WNW 5.5mph /  8.9km/h 10mph /  16.1km/h 90% 0.00in /  0mm 0 W/m2
23:54 48.4 °F /  9.1 °C 45.5 °F /  7.5 °C 30.16in /  1021.2hPa WNW 4.8mph /  7.7km/h 9mph /  14.5km/h 90% 0.00in /  0mm 0 W/m2
23:59 48.6 °F /  9.2 °C 45.7 °F /  7.6 °C 30.16in /  1021.2hPa WNW 5.8mph /  9.3km/h 11mph /  17.7km/h 90% 0.00in /  0mm 0 W/m2
Bath Spa Weather
Compliments of Weather Underground - 2 mb